createdAt,value
2023-06-16T00:00:35.281Z,3.17
2023-06-16T00:03:37.755Z,2.93
2023-06-16T00:06:43.728Z,3.07
2023-06-16T00:09:45.772Z,3.20
2023-06-16T00:12:47.876Z,2.77
2023-06-16T00:15:49.866Z,3.03
2023-06-16T00:18:59.578Z,2.80
2023-06-16T00:22:03.572Z,3.00
2023-06-16T00:25:06.730Z,3.27
2023-06-16T00:28:08.750Z,2.83
2023-06-16T00:31:11.250Z,3.60
2023-06-16T00:34:13.458Z,3.20
2023-06-16T00:37:16.445Z,3.40
2023-06-16T00:40:19.186Z,3.43
2023-06-16T00:43:22.145Z,3.17
2023-06-16T00:46:29.521Z,3.57
2023-06-16T00:49:32.163Z,3.87
2023-06-16T00:52:37.727Z,3.23
2023-06-16T00:55:39.845Z,3.87
2023-06-16T00:58:42.225Z,3.00
2023-06-16T01:01:44.637Z,3.10
2023-06-16T01:04:47.775Z,3.70
2023-06-16T01:07:57.416Z,3.47
2023-06-16T01:11:11.202Z,3.50
2023-06-16T01:15:00.045Z,3.40
2023-06-16T01:18:02.871Z,2.87
2023-06-16T01:21:53.818Z,3.53
2023-06-16T01:24:58.979Z,3.53
2023-06-16T01:28:02.170Z,3.50
2023-06-16T01:31:04.845Z,3.70
2023-06-16T01:34:07.785Z,3.40
2023-06-16T01:37:10.211Z,3.93
2023-06-16T01:40:13.283Z,3.47
2023-06-16T01:43:16.249Z,4.00
2023-06-16T01:46:18.784Z,3.87
2023-06-16T01:49:21.122Z,3.40
2023-06-16T01:52:23.351Z,3.43
2023-06-16T01:55:25.840Z,3.90
2023-06-16T01:58:28.268Z,4.07
2023-06-16T02:01:31.798Z,4.07
2023-06-16T02:04:35.456Z,4.07
2023-06-16T02:07:40.894Z,3.70
2023-06-16T02:10:43.382Z,3.73
2023-06-16T02:13:46.184Z,4.00
2023-06-16T02:16:50.705Z,3.60
2023-06-16T02:19:53.412Z,3.93
2023-06-16T02:22:56.110Z,3.70
2023-06-16T02:25:58.279Z,3.87
2023-06-16T02:29:00.292Z,3.70
2023-06-16T02:32:02.832Z,3.87
2023-06-16T02:35:08.747Z,4.27
2023-06-16T02:38:10.981Z,4.10
2023-06-16T02:41:13.975Z,3.93
2023-06-16T02:44:16.323Z,4.00
2023-06-16T02:47:18.360Z,3.80
2023-06-16T02:53:26.168Z,3.90
2023-06-16T02:56:30.282Z,4.30
2023-06-16T02:59:32.799Z,4.03
2023-06-16T03:02:34.991Z,4.17
2023-06-16T03:05:37.875Z,3.83
2023-06-16T03:08:39.899Z,4.10
2023-06-16T03:11:42.136Z,4.00
2023-06-16T03:14:44.274Z,3.67
2023-06-16T03:17:46.377Z,4.23
2023-06-16T03:20:49.268Z,3.90
2023-06-16T03:23:51.960Z,4.33
2023-06-16T03:26:55.681Z,3.80
2023-06-16T03:29:58.288Z,4.13
2023-06-16T03:33:00.406Z,3.77
2023-06-16T03:36:02.410Z,3.97
2023-06-16T03:39:05.287Z,3.80
2023-06-16T03:42:07.922Z,3.83
2023-06-16T03:45:11.141Z,3.70
2023-06-16T03:48:13.914Z,4.23
2023-06-16T03:51:17.453Z,4.47
2023-06-16T03:54:20.368Z,4.33
2023-06-16T03:57:22.439Z,4.40
2023-06-16T04:00:24.566Z,4.30
2023-06-16T04:03:29.363Z,4.23
2023-06-16T04:06:33.762Z,4.50
2023-06-16T04:09:36.004Z,4.17
2023-06-16T04:12:38.247Z,3.90
2023-06-16T04:15:40.233Z,3.43
2023-06-16T04:18:42.640Z,4.30
2023-06-16T04:21:44.997Z,4.13
2023-06-16T04:24:47.161Z,3.80
2023-06-16T04:27:51.132Z,3.97
2023-06-16T04:30:53.499Z,3.80
2023-06-16T04:33:57.823Z,3.73
2023-06-16T04:37:00.262Z,3.87
2023-06-16T04:40:03.173Z,4.00
2023-06-16T04:43:07.515Z,4.27
2023-06-16T04:46:10.153Z,3.73
2023-06-16T04:49:12.237Z,3.73
2023-06-16T04:52:14.368Z,3.57
2023-06-16T04:55:19.261Z,3.57
2023-06-16T04:58:22.464Z,3.80
2023-06-16T05:01:27.791Z,4.10
2023-06-16T05:04:30.822Z,3.47
2023-06-16T05:07:33.004Z,3.43
2023-06-16T05:10:35.094Z,3.57
2023-06-16T05:13:37.301Z,3.40
2023-06-16T05:16:40.360Z,3.80
2023-06-16T05:19:42.928Z,4.00
2023-06-16T05:22:45.075Z,3.63
2023-06-16T05:25:47.126Z,4.10
2023-06-16T05:28:49.367Z,4.07
2023-06-16T05:31:52.190Z,3.60
2023-06-16T05:34:55.341Z,3.63
2023-06-16T05:37:57.274Z,4.03
2023-06-16T05:40:59.282Z,4.00
2023-06-16T05:44:01.983Z,4.20
2023-06-16T05:47:04.744Z,4.20
2023-06-16T05:50:07.465Z,4.13
2023-06-16T05:53:10.023Z,4.60
2023-06-16T05:56:11.987Z,4.10
2023-06-16T05:59:13.934Z,4.37
2023-06-16T06:02:16.480Z,5.50
2023-06-16T06:05:18.585Z,6.00
2023-06-16T06:08:24.377Z,6.47
2023-06-16T06:11:27.449Z,7.40
2023-06-16T06:14:29.381Z,5.80
2023-06-16T06:17:31.421Z,6.00
2023-06-16T06:20:33.983Z,6.40
2023-06-16T06:23:36.038Z,6.37
2023-06-16T06:26:39.883Z,6.83
2023-06-16T06:29:41.891Z,6.33
2023-06-16T06:32:43.899Z,6.50
2023-06-16T06:35:46.947Z,6.47
2023-06-16T06:38:49.007Z,7.90
2023-06-16T06:41:52.043Z,5.13
2023-06-16T06:44:54.917Z,5.73
2023-06-16T06:47:57.126Z,4.83
2023-06-16T06:50:59.118Z,4.43
2023-06-16T06:54:01.147Z,5.13
2023-06-16T06:57:03.471Z,5.40
2023-06-16T07:00:06.422Z,5.23
2023-06-16T07:03:09.243Z,5.40
2023-06-16T07:06:11.473Z,6.27
2023-06-16T07:09:25.929Z,5.73
2023-06-16T07:12:33.115Z,5.43
2023-06-16T07:15:35.135Z,5.50
2023-06-16T07:18:38.209Z,5.33
2023-06-16T07:21:40.234Z,5.10
2023-06-16T07:24:43.041Z,5.77
2023-06-16T07:27:45.222Z,5.20
2023-06-16T07:30:48.089Z,6.43
2023-06-16T07:33:50.456Z,5.10
2023-06-16T07:36:52.963Z,5.10
2023-06-16T07:39:54.850Z,4.67
2023-06-16T07:42:57.169Z,4.90
2023-06-16T07:45:59.101Z,4.90
2023-06-16T07:49:01.148Z,4.70
2023-06-16T07:52:03.106Z,4.87
2023-06-16T07:55:08.527Z,5.10
2023-06-16T07:58:10.471Z,4.33
2023-06-16T08:01:13.214Z,4.83
2023-06-16T08:04:15.359Z,4.10
2023-06-16T08:07:17.702Z,4.20
2023-06-16T08:10:22.249Z,3.83
2023-06-16T08:13:25.691Z,4.43
2023-06-16T08:16:27.799Z,4.23
2023-06-16T08:19:29.818Z,4.17
2023-06-16T08:22:31.787Z,3.60
2023-06-16T08:25:34.238Z,3.90
2023-06-16T08:28:41.965Z,4.57
2023-06-16T08:31:43.953Z,3.37
2023-06-16T08:34:46.242Z,3.90
2023-06-16T08:37:48.305Z,3.75
2023-06-16T08:40:50.335Z,3.60
2023-06-16T08:43:54.544Z,3.90
2023-06-16T08:46:58.034Z,3.88
2023-06-16T08:50:00.226Z,3.40
2023-06-16T08:53:02.607Z,3.38
2023-06-16T08:56:06.851Z,3.35
2023-06-16T08:59:09.393Z,3.35
2023-06-16T09:02:11.647Z,3.90
2023-06-16T09:05:13.791Z,3.03
2023-06-16T09:08:16.054Z,3.25
2023-06-16T09:11:27.288Z,4.00
2023-06-16T09:14:33.062Z,3.83
2023-06-16T09:17:35.300Z,3.58
2023-06-16T09:20:41.288Z,3.35
2023-06-16T09:23:44.730Z,3.28
2023-06-16T09:26:46.751Z,3.45
2023-06-16T09:29:54.743Z,3.83
2023-06-16T09:32:56.983Z,3.55
2023-06-16T09:36:01.743Z,3.00
2023-06-16T09:39:07.303Z,3.75
2023-06-16T09:42:15.421Z,3.35
2023-06-16T09:45:18.211Z,3.25
2023-06-16T09:48:21.043Z,3.03
2023-06-16T09:51:24.766Z,3.38
2023-06-16T09:54:28.262Z,3.55
2023-06-16T09:57:30.350Z,3.40
2023-06-16T10:00:34.520Z,3.17
2023-06-16T10:03:40.386Z,2.75
2023-06-16T10:06:56.402Z,2.95
2023-06-16T10:10:04.081Z,3.65
2023-06-16T10:13:08.789Z,3.40
2023-06-16T10:16:13.065Z,3.40
2023-06-16T10:19:15.902Z,3.50
2023-06-16T10:22:19.060Z,3.28
2023-06-16T10:25:21.524Z,3.58
2023-06-16T10:28:23.653Z,3.40
2023-06-16T10:31:29.165Z,3.33
2023-06-16T10:34:32.316Z,3.20
2023-06-16T10:37:34.373Z,2.72
2023-06-16T10:40:43.648Z,3.20
2023-06-16T10:43:45.689Z,3.17
2023-06-16T10:47:10.608Z,2.83
2023-06-16T10:50:12.811Z,3.80
2023-06-16T10:53:21.873Z,3.45
2023-06-16T10:56:23.879Z,3.97
2023-06-16T10:59:26.795Z,3.65
2023-06-16T11:02:34.878Z,3.53
2023-06-16T11:05:43.297Z,3.47
2023-06-16T11:08:54.434Z,3.78
2023-06-16T11:12:01.332Z,3.15
2023-06-16T11:15:06.423Z,2.97
2023-06-16T11:18:08.530Z,3.47
2023-06-16T11:21:13.412Z,3.35
2023-06-16T11:24:16.503Z,3.30
2023-06-16T11:27:18.536Z,3.30
2023-06-16T11:30:20.914Z,3.90
2023-06-16T11:33:24.078Z,4.03
2023-06-16T11:36:26.222Z,3.03
2023-06-16T11:39:28.232Z,3.15
2023-06-16T11:42:30.804Z,3.55
2023-06-16T11:45:37.909Z,3.45
2023-06-16T11:48:40.376Z,4.10
2023-06-16T11:51:42.755Z,3.92
2023-06-16T11:54:44.813Z,3.95
2023-06-16T11:57:47.684Z,3.83
2023-06-16T12:00:50.620Z,3.78
2023-06-16T12:04:04.917Z,3.72
2023-06-16T12:07:08.957Z,3.92
2023-06-16T12:10:11.191Z,4.03
2023-06-16T12:13:13.218Z,3.83
2023-06-16T12:16:15.456Z,4.00
2023-06-16T12:19:22.226Z,4.07
2023-06-16T12:22:24.114Z,4.17
2023-06-16T12:25:28.506Z,3.67
2023-06-16T12:28:30.934Z,4.37
2023-06-16T12:31:33.309Z,4.47
2023-06-16T12:34:37.419Z,5.23
2023-06-16T12:37:45.634Z,5.20
2023-06-16T12:40:53.709Z,5.30
2023-06-16T12:43:56.324Z,3.63
2023-06-16T12:46:58.293Z,3.87
2023-06-16T12:50:01.926Z,4.03
2023-06-16T12:53:03.826Z,4.13
2023-06-16T12:56:09.306Z,4.30
2023-06-16T12:59:11.303Z,4.10
2023-06-16T13:02:13.818Z,4.17
2023-06-16T13:05:15.905Z,3.83
2023-06-16T13:08:20.048Z,3.00
2023-06-16T13:11:22.193Z,3.97
2023-06-16T13:14:25.802Z,3.50
2023-06-16T13:17:28.337Z,3.80
2023-06-16T13:20:30.569Z,3.80
2023-06-16T13:23:32.643Z,4.10
2023-06-16T13:26:34.919Z,3.60
2023-06-16T13:29:36.919Z,3.50
2023-06-16T13:32:40.060Z,3.85
2023-06-16T13:35:42.495Z,3.58
2023-06-16T13:38:45.866Z,2.72
2023-06-16T13:41:47.817Z,3.03
2023-06-16T13:44:50.352Z,3.55
2023-06-16T13:47:53.116Z,3.65
2023-06-16T13:50:55.253Z,3.53
2023-06-16T13:53:57.328Z,3.22
2023-06-16T13:56:59.389Z,3.63
2023-06-16T14:00:01.481Z,3.85
2023-06-16T14:03:03.539Z,3.63
2023-06-16T14:06:06.049Z,3.80
2023-06-16T14:09:09.629Z,3.40
2023-06-16T14:12:12.969Z,3.65
2023-06-16T14:15:18.051Z,3.72
2023-06-16T14:18:20.380Z,3.85
2023-06-16T14:21:22.391Z,3.78
2023-06-16T14:24:24.568Z,3.97
2023-06-16T14:27:26.577Z,4.03
2023-06-16T14:30:28.910Z,3.75
2023-06-16T14:33:31.009Z,3.75
2023-06-16T14:36:33.006Z,3.60
2023-06-16T14:39:35.082Z,3.80
2023-06-16T14:42:38.641Z,3.75
2023-06-16T14:45:40.686Z,3.97
2023-06-16T14:48:42.742Z,3.38
2023-06-16T14:51:45.973Z,3.50
2023-06-16T14:54:48.278Z,3.63
2023-06-16T14:57:50.229Z,3.53
2023-06-16T15:00:53.110Z,3.40
2023-06-16T15:03:55.461Z,3.70
2023-06-16T15:06:58.484Z,3.50
2023-06-16T15:10:01.016Z,3.17
2023-06-16T15:13:03.967Z,3.00
2023-06-16T15:16:06.599Z,2.90
2023-06-16T15:19:09.418Z,2.75
2023-06-16T15:22:12.106Z,2.60
2023-06-16T15:25:14.412Z,2.70
2023-06-16T15:28:16.564Z,3.08
2023-06-16T15:31:19.417Z,2.53
2023-06-16T15:34:21.968Z,3.10
2023-06-16T15:37:24.654Z,2.92
2023-06-16T15:40:27.803Z,3.03
2023-06-16T15:43:31.306Z,3.42
2023-06-16T15:46:33.688Z,2.95
2023-06-16T15:49:37.723Z,3.00
2023-06-16T15:52:39.994Z,3.00
2023-06-16T15:55:42.912Z,2.78
2023-06-16T15:58:45.555Z,3.20
2023-06-16T16:01:48.545Z,3.15
2023-06-16T16:04:50.893Z,3.08
2023-06-16T16:07:54.245Z,2.97
2023-06-16T16:10:56.462Z,2.88
2023-06-16T16:14:00.121Z,3.25
2023-06-16T16:17:02.741Z,2.92
2023-06-16T16:20:06.018Z,3.07
2023-06-16T16:23:08.194Z,3.00
2023-06-16T16:26:11.188Z,3.30
2023-06-16T16:29:20.273Z,3.37
2023-06-16T16:32:26.471Z,3.30
2023-06-16T16:35:28.951Z,3.80
2023-06-16T16:38:32.470Z,2.90
2023-06-16T16:41:34.633Z,3.08
2023-06-16T16:44:37.462Z,2.47
2023-06-16T16:47:39.930Z,2.88
2023-06-16T16:50:42.370Z,2.65
2023-06-16T16:53:44.639Z,3.53
2023-06-16T16:56:48.380Z,3.15
2023-06-16T16:59:51.002Z,3.25
2023-06-16T17:02:53.377Z,2.63
2023-06-16T17:05:55.672Z,3.15
2023-06-16T17:08:59.416Z,3.53
2023-06-16T17:12:01.645Z,3.67
2023-06-16T17:15:05.591Z,3.38
2023-06-16T17:18:08.829Z,3.65
2023-06-16T17:21:11.566Z,3.50
2023-06-16T17:24:13.638Z,3.60
2023-06-16T17:27:16.627Z,3.23
2023-06-16T17:30:19.437Z,3.20
2023-06-16T17:33:22.021Z,3.20
2023-06-16T17:36:24.262Z,3.60
2023-06-16T17:39:26.942Z,3.60
2023-06-16T17:42:29.520Z,3.27
2023-06-16T17:45:35.951Z,3.67
2023-06-16T17:48:38.091Z,3.10
2023-06-16T17:51:40.818Z,3.43
2023-06-16T17:54:43.405Z,4.07
2023-06-16T17:57:46.409Z,3.60
2023-06-16T18:00:48.698Z,3.90
2023-06-16T18:03:51.258Z,3.70
2023-06-16T18:06:54.307Z,4.83
2023-06-16T18:09:56.685Z,4.73
2023-06-16T18:12:59.038Z,4.33
2023-06-16T18:16:04.635Z,4.73
2023-06-16T18:19:07.124Z,5.13
2023-06-16T18:22:09.292Z,4.67
2023-06-16T18:25:14.492Z,4.57
2023-06-16T18:28:18.371Z,4.43
2023-06-16T18:31:21.639Z,4.57
2023-06-16T18:34:24.307Z,4.83
2023-06-16T18:37:27.270Z,4.80
2023-06-16T18:40:30.909Z,5.30
2023-06-16T18:43:33.895Z,5.00
2023-06-16T18:46:36.428Z,5.77
2023-06-16T18:49:38.905Z,5.47
2023-06-16T18:52:43.031Z,5.47
2023-06-16T18:55:51.048Z,5.03
2023-06-16T18:59:00.598Z,4.87
2023-06-16T19:02:06.158Z,5.00
2023-06-16T19:05:10.446Z,6.07
2023-06-16T19:08:17.755Z,5.40
2023-06-16T19:11:24.345Z,4.70
2023-06-16T19:14:31.176Z,4.47
2023-06-16T19:17:37.152Z,4.93
2023-06-16T19:20:45.173Z,4.67
2023-06-16T19:23:50.493Z,5.20
2023-06-16T19:26:55.780Z,5.13
2023-06-16T19:30:00.093Z,4.80
2023-06-16T19:33:04.365Z,4.77
2023-06-16T19:36:08.074Z,4.63
2023-06-16T19:39:10.997Z,4.77
2023-06-16T19:42:15.203Z,4.57
2023-06-16T19:45:18.252Z,4.27
2023-06-16T19:48:20.972Z,4.40
2023-06-16T19:51:25.287Z,4.30
2023-06-16T19:54:28.339Z,4.47
2023-06-16T19:57:30.866Z,4.40
2023-06-16T20:00:33.370Z,4.77
2023-06-16T20:03:35.497Z,5.00
2023-06-16T20:06:38.897Z,4.37
2023-06-16T20:09:41.249Z,4.80
2023-06-16T20:12:43.251Z,4.87
2023-06-16T20:15:45.190Z,4.67
2023-06-16T20:18:47.416Z,5.00
2023-06-16T20:21:49.320Z,4.40
2023-06-16T20:24:51.500Z,4.67
2023-06-16T20:27:53.980Z,4.33
2023-06-16T20:30:56.743Z,5.00
2023-06-16T20:33:58.832Z,5.30
2023-06-16T20:37:05.194Z,4.80
2023-06-16T20:40:11.053Z,4.77
2023-06-16T20:43:13.719Z,4.43
2023-06-16T20:46:16.143Z,4.57
2023-06-16T20:49:19.608Z,4.20
2023-06-16T20:52:22.024Z,4.20
2023-06-16T20:55:25.316Z,3.90
2023-06-16T20:58:28.783Z,4.27
2023-06-16T21:01:31.276Z,4.43
2023-06-16T21:04:33.282Z,4.63
2023-06-16T21:07:38.066Z,4.43
2023-06-16T21:10:40.601Z,4.37
2023-06-16T21:13:42.848Z,4.50
2023-06-16T21:16:44.936Z,4.07
2023-06-16T21:19:47.720Z,3.83
2023-06-16T21:22:52.286Z,4.40
2023-06-16T21:25:54.409Z,4.50
2023-06-16T21:28:56.428Z,3.70
2023-06-16T21:31:58.524Z,4.40
2023-06-16T21:35:00.641Z,4.80
2023-06-16T21:38:04.255Z,4.80
2023-06-16T21:41:07.014Z,5.77
2023-06-16T21:44:09.321Z,4.20
2023-06-16T21:47:11.689Z,4.27
2023-06-16T21:50:14.122Z,4.20
2023-06-16T21:53:16.630Z,4.43
2023-06-16T21:56:19.372Z,4.70
2023-06-16T21:59:21.650Z,4.30
2023-06-16T22:02:24.986Z,4.03
2023-06-16T22:05:27.141Z,3.93
2023-06-16T22:08:29.406Z,4.03
2023-06-16T22:11:31.686Z,3.70
2023-06-16T22:14:34.423Z,4.63
2023-06-16T22:17:38.566Z,4.60
2023-06-16T22:20:40.880Z,4.40
2023-06-16T22:23:43.184Z,4.70
2023-06-16T22:26:46.852Z,4.00
2023-06-16T22:29:50.804Z,4.67
2023-06-16T22:32:52.954Z,3.83
2023-06-16T22:35:55.179Z,4.37
2023-06-16T22:38:57.700Z,4.63
2023-06-16T22:42:00.087Z,5.00
2023-06-16T22:45:02.604Z,4.57
2023-06-16T22:48:04.718Z,4.63
2023-06-16T22:51:06.649Z,4.60
2023-06-16T22:54:09.053Z,5.00
2023-06-16T22:57:11.553Z,5.50
2023-06-16T23:00:14.523Z,4.90
2023-06-16T23:03:16.983Z,4.40
2023-06-16T23:06:19.204Z,3.97
2023-06-16T23:09:21.259Z,4.43
2023-06-16T23:12:23.407Z,4.60
2023-06-16T23:15:26.835Z,4.80
2023-06-16T23:18:29.333Z,4.53
2023-06-16T23:21:32.573Z,4.40
2023-06-16T23:24:35.141Z,4.97
2023-06-16T23:27:39.093Z,4.90
2023-06-16T23:30:42.555Z,5.17
2023-06-16T23:33:46.816Z,4.93
2023-06-16T23:36:49.238Z,4.80
2023-06-16T23:39:51.279Z,4.97
2023-06-16T23:42:53.452Z,4.83
2023-06-16T23:45:55.439Z,4.60
2023-06-16T23:48:57.549Z,5.03
2023-06-16T23:52:00.423Z,4.83
2023-06-16T23:55:02.474Z,4.77
2023-06-16T23:58:05.218Z,4.50
